Terminal Aerodrome Forecast
Issued by NWS Cleveland, OH

Home | Current Version | Previous Version | Graphics & Text | Print | Product List | Glossary Off
Versions: 1 2 3 4 5 6 7 8 9 10 11 12 13 14 15 16 17 18

000
FTUS41 KCLE 270900 AAA
TAFYNG
TAF AMD
KYNG 270932Z 2710/2806 19005KT P6SM OVC030
     FM271700 19009KT P6SM OVC070
     FM280000 20008KT P6SM -RA OVC025
     FM280400 23008KT P6SM -RA OVC005=

USA.gov is the U.S. government's official web portal to all federal, state and local government web resources and services.